createdAt,value
2019-04-29T00:02:22.401Z,90.17
2019-04-29T00:04:50.969Z,90.01
2019-04-29T00:07:20.022Z,90.15
2019-04-29T00:09:48.619Z,90.17
2019-04-29T00:12:17.986Z,90.21
2019-04-29T00:14:49.006Z,90.23
2019-04-29T00:17:28.473Z,90.32
2019-04-29T00:20:01.518Z,90.37
2019-04-29T00:22:30.199Z,90.32
2019-04-29T00:24:58.852Z,90.31
2019-04-29T00:27:27.516Z,90.34
2019-04-29T00:29:56.174Z,90.20
2019-04-29T00:32:24.768Z,90.32
2019-04-29T00:34:53.371Z,90.17
2019-04-29T00:37:23.600Z,90.05
2019-04-29T00:40:10.034Z,90.10
2019-04-29T00:42:44.510Z,90.06
2019-04-29T00:45:14.609Z,89.92
2019-04-29T00:47:43.212Z,89.83
2019-04-29T00:50:12.509Z,89.87
2019-04-29T00:52:41.109Z,89.89
2019-04-29T00:55:14.331Z,89.88
2019-04-29T00:57:42.929Z,89.80
2019-04-29T01:00:14.869Z,89.76
2019-04-29T01:02:47.868Z,89.83
2019-04-29T01:05:16.464Z,90.06
2019-04-29T01:07:45.067Z,90.02
2019-04-29T01:10:14.159Z,90.00
2019-04-29T01:12:42.819Z,90.04
2019-04-29T01:15:12.024Z,90.01
2019-04-29T01:17:40.645Z,90.10
2019-04-29T01:20:10.421Z,90.02
2019-04-29T01:22:39.016Z,90.08
2019-04-29T01:25:07.776Z,90.18
2019-04-29T01:27:44.031Z,90.22
2019-04-29T01:30:15.669Z,90.18
2019-04-29T01:32:44.272Z,90.04
2019-04-29T01:35:12.874Z,90.18
2019-04-29T01:37:42.260Z,90.10
2019-04-29T01:40:16.061Z,90.09
2019-04-29T01:42:45.132Z,90.05
2019-04-29T01:45:13.753Z,90.18
2019-04-29T01:47:44.075Z,90.18
2019-04-29T01:50:12.977Z,90.11
2019-04-29T01:52:41.573Z,90.09
2019-04-29T01:55:10.179Z,89.95
2019-04-29T01:57:38.781Z,90.07
2019-04-29T02:00:12.263Z,90.15
2019-04-29T02:02:40.487Z,90.09
2019-04-29T02:05:09.093Z,90.16
2019-04-29T02:07:37.637Z,90.27
2019-04-29T02:10:14.269Z,90.24
2019-04-29T02:12:42.729Z,90.01
2019-04-29T02:15:11.637Z,90.08
2019-04-29T02:17:40.296Z,90.16
2019-04-29T02:20:09.658Z,90.13
2019-04-29T02:22:51.704Z,90.07
2019-04-29T02:25:21.930Z,89.97
2019-04-29T02:27:50.526Z,89.93
2019-04-29T02:30:30.975Z,89.93
2019-04-29T02:33:00.943Z,89.89
2019-04-29T02:35:29.571Z,90.02
2019-04-29T02:37:58.303Z,90.12
2019-04-29T02:40:28.405Z,90.19
2019-04-29T02:43:04.609Z,90.08
2019-04-29T02:45:34.806Z,90.12
2019-04-29T02:48:03.466Z,90.03
2019-04-29T02:50:32.158Z,90.07
2019-04-29T02:53:00.754Z,90.06
2019-04-29T02:55:30.984Z,90.09
2019-04-29T02:58:13.235Z,90.14
2019-04-29T03:00:59.731Z,90.31
2019-04-29T03:03:33.846Z,90.19
2019-04-29T03:06:04.123Z,90.30
2019-04-29T03:08:32.730Z,90.23
2019-04-29T03:11:01.350Z,90.16
2019-04-29T03:13:29.914Z,90.13
2019-04-29T03:16:01.185Z,90.07
2019-04-29T03:18:31.391Z,90.02
2019-04-29T03:21:07.648Z,90.13
2019-04-29T03:23:36.658Z,90.07
2019-04-29T03:26:05.270Z,90.09
2019-04-29T03:28:33.861Z,90.04
2019-04-29T03:31:02.534Z,90.28
2019-04-29T03:33:31.138Z,90.37
2019-04-29T03:35:59.723Z,90.35
2019-04-29T03:38:28.251Z,90.26
2019-04-29T03:40:56.728Z,90.13
2019-04-29T03:43:25.322Z,90.05
2019-04-29T03:45:53.884Z,90.15
2019-04-29T03:48:22.886Z,90.30
2019-04-29T03:50:51.498Z,90.21
2019-04-29T03:53:20.244Z,90.20
2019-04-29T03:55:50.485Z,90.28
2019-04-29T03:58:19.035Z,90.34
2019-04-29T04:00:49.257Z,90.26
2019-04-29T04:03:31.678Z,90.18
2019-04-29T04:06:10.995Z,90.22
2019-04-29T04:08:44.286Z,90.21
2019-04-29T04:11:12.884Z,89.99
2019-04-29T04:13:41.435Z,89.87
2019-04-29T04:16:11.912Z,89.92
2019-04-29T04:18:40.378Z,90.03
2019-04-29T04:21:08.979Z,90.08
2019-04-29T04:23:37.530Z,90.07
2019-04-29T04:26:06.214Z,89.98
2019-04-29T04:28:34.848Z,89.98
2019-04-29T04:31:06.742Z,89.85
2019-04-29T04:33:33.737Z,89.69
2019-04-29T04:36:02.347Z,89.67
2019-04-29T04:38:31.071Z,89.61
2019-04-29T04:41:03.667Z,89.52
2019-04-29T04:43:32.259Z,89.51
2019-04-29T04:46:00.797Z,89.56
2019-04-29T04:48:29.331Z,89.44
2019-04-29T04:50:57.958Z,89.68
2019-04-29T04:53:26.610Z,89.76
2019-04-29T04:55:56.838Z,89.87
2019-04-29T04:58:25.299Z,89.71
2019-04-29T05:00:53.967Z,89.52
2019-04-29T05:03:22.585Z,89.48
2019-04-29T05:05:51.188Z,89.11
2019-04-29T05:08:19.741Z,89.25
2019-04-29T05:10:48.571Z,89.01
2019-04-29T05:13:27.969Z,89.17
2019-04-29T05:15:47.483Z,89.06
2019-04-29T05:18:16.119Z,88.81
2019-04-29T05:20:44.825Z,88.78
2019-04-29T05:23:13.293Z,88.92
2019-04-29T05:25:41.822Z,88.71
2019-04-29T05:28:11.824Z,88.74
2019-04-29T05:30:40.359Z,88.80
2019-04-29T05:33:08.823Z,88.81
2019-04-29T05:35:40.363Z,88.66
2019-04-29T05:38:13.791Z,88.36
2019-04-29T05:40:44.209Z,88.13
2019-04-29T05:43:20.358Z,88.07
2019-04-29T05:46:07.475Z,88.03
2019-04-29T05:48:36.798Z,87.82
2019-04-29T05:51:07.099Z,87.74
2019-04-29T05:53:40.585Z,87.69
2019-04-29T05:56:09.038Z,87.41
2019-04-29T05:58:39.463Z,87.56
2019-04-29T06:01:09.564Z,87.70
2019-04-29T06:03:39.768Z,87.42
2019-04-29T06:06:08.708Z,87.48
2019-04-29T06:08:39.085Z,87.24
2019-04-29T06:11:09.086Z,87.41
2019-04-29T06:13:37.673Z,87.52
2019-04-29T06:16:06.288Z,87.21
2019-04-29T06:18:34.867Z,87.25
2019-04-29T06:21:09.423Z,86.96
2019-04-29T06:23:34.128Z,87.16
2019-04-29T06:26:02.740Z,87.00
2019-04-29T06:28:31.198Z,86.79
2019-04-29T06:31:00.226Z,86.91
2019-04-29T06:33:30.767Z,87.02
2019-04-29T06:35:59.203Z,87.24
2019-04-29T06:38:27.663Z,86.96
2019-04-29T06:40:56.369Z,86.85
2019-04-29T06:43:28.842Z,86.71
2019-04-29T06:45:55.291Z,86.39
2019-04-29T06:48:24.640Z,86.83
2019-04-29T06:50:53.172Z,86.65
2019-04-29T06:53:23.273Z,86.92
2019-04-29T06:55:51.928Z,86.68
2019-04-29T06:58:20.585Z,87.19
2019-04-29T07:00:50.994Z,87.22
2019-04-29T07:03:20.872Z,87.23
2019-04-29T07:05:51.490Z,87.05
2019-04-29T07:08:20.230Z,87.10
2019-04-29T07:10:48.728Z,87.23
2019-04-29T07:13:17.963Z,87.14
2019-04-29T07:15:48.898Z,87.17
2019-04-29T07:18:18.435Z,87.31
2019-04-29T07:20:47.038Z,87.31
2019-04-29T07:23:15.743Z,87.36
2019-04-29T07:25:44.515Z,87.38
2019-04-29T07:28:13.769Z,87.50
2019-04-29T07:31:00.317Z,87.35
2019-04-29T07:33:13.558Z,87.09
2019-04-29T07:35:42.890Z,87.18
2019-04-29T07:38:12.364Z,87.19
2019-04-29T07:40:43.280Z,87.16
2019-04-29T07:43:11.217Z,87.17
2019-04-29T07:45:50.338Z,87.13
2019-04-29T07:48:19.138Z,87.31
2019-04-29T07:50:47.736Z,87.33
2019-04-29T07:53:16.331Z,87.40
2019-04-29T07:55:44.928Z,87.29
2019-04-29T07:58:13.546Z,87.10
2019-04-29T08:00:44.628Z,87.07
2019-04-29T08:03:12.419Z,87.08
2019-04-29T08:05:41.826Z,87.09
2019-04-29T08:08:10.461Z,87.08
2019-04-29T08:10:53.570Z,86.72
2019-04-29T08:13:09.543Z,87.06
2019-04-29T08:15:41.632Z,86.85
2019-04-29T08:18:11.254Z,86.67
2019-04-29T08:20:41.835Z,87.12
2019-04-29T08:23:10.447Z,86.83
2019-04-29T08:25:38.978Z,87.07
2019-04-29T08:28:07.577Z,86.52
2019-04-29T08:30:36.233Z,86.43
2019-04-29T08:33:07.481Z,86.46
2019-04-29T08:35:36.866Z,86.28
2019-04-29T08:38:05.664Z,86.33
2019-04-29T08:40:34.480Z,86.38
2019-04-29T08:43:07.731Z,86.10
2019-04-29T08:45:40.597Z,86.06
2019-04-29T08:48:09.185Z,86.16
2019-04-29T08:50:37.858Z,85.82
2019-04-29T08:53:06.492Z,85.60
2019-04-29T08:55:36.550Z,85.98
2019-04-29T08:58:06.908Z,86.03
2019-04-29T09:00:36.002Z,86.17
2019-04-29T09:03:04.903Z,86.02
2019-04-29T09:05:33.364Z,86.08
2019-04-29T09:08:01.999Z,85.77
2019-04-29T09:10:32.990Z,85.71
2019-04-29T09:13:00.791Z,85.48
2019-04-29T09:15:29.258Z,85.00
2019-04-29T09:17:57.791Z,85.07
2019-04-29T09:20:26.329Z,84.84
2019-04-29T09:22:59.301Z,84.70
2019-04-29T09:25:29.591Z,84.17
2019-04-29T09:28:15.116Z,84.28
2019-04-29T09:30:42.417Z,83.18
2019-04-29T09:33:13.049Z,83.79
2019-04-29T09:35:41.353Z,83.57
2019-04-29T09:38:10.046Z,82.85
2019-04-29T09:40:40.356Z,82.84
2019-04-29T09:43:28.562Z,83.16
2019-04-29T09:46:10.926Z,83.45
2019-04-29T09:48:39.452Z,82.96
2019-04-29T09:51:17.129Z,83.52
2019-04-29T09:53:38.385Z,83.14
2019-04-29T09:56:06.984Z,82.89
2019-04-29T09:58:35.519Z,83.07
2019-04-29T10:01:18.936Z,83.05
2019-04-29T10:03:56.362Z,82.29
2019-04-29T10:06:26.607Z,82.37
2019-04-29T10:08:55.223Z,81.51
2019-04-29T10:11:23.827Z,81.65
2019-04-29T10:13:52.540Z,82.35
2019-04-29T10:16:31.774Z,82.22
2019-04-29T10:19:05.304Z,81.95
2019-04-29T10:21:31.495Z,82.53
2019-04-29T10:23:59.950Z,82.72
2019-04-29T10:26:28.620Z,82.96
2019-04-29T10:28:58.791Z,82.96
2019-04-29T10:31:32.582Z,83.31
2019-04-29T10:34:01.260Z,83.60
2019-04-29T10:36:29.998Z,83.70
2019-04-29T10:39:00.271Z,83.82
2019-04-29T10:41:40.450Z,84.09
2019-04-29T10:44:26.663Z,84.20
2019-04-29T10:47:02.940Z,84.37
2019-04-29T10:49:34.912Z,84.57
2019-04-29T10:52:04.643Z,84.44
2019-04-29T10:54:34.006Z,84.28
2019-04-29T10:57:02.788Z,84.40
2019-04-29T10:59:35.962Z,84.60
2019-04-29T11:02:26.841Z,84.51
2019-04-29T11:05:02.502Z,84.43
2019-04-29T11:07:44.173Z,84.13
2019-04-29T11:10:26.832Z,83.98
2019-04-29T11:12:55.894Z,83.97
2019-04-29T11:15:32.501Z,84.14
2019-04-29T11:18:03.328Z,83.95
2019-04-29T11:20:30.845Z,83.87
2019-04-29T11:23:09.312Z,83.62
2019-04-29T11:25:42.646Z,83.26
2019-04-29T11:28:12.002Z,83.66
2019-04-29T11:30:41.660Z,83.93
2019-04-29T11:33:11.842Z,83.73
2019-04-29T11:35:59.095Z,83.86
2019-04-29T11:38:33.457Z,84.03
2019-04-29T11:40:59.369Z,83.71
2019-04-29T11:43:28.404Z,83.69
2019-04-29T11:45:57.034Z,83.74
2019-04-29T11:48:25.722Z,83.88
2019-04-29T11:50:56.809Z,84.12
2019-04-29T11:53:25.411Z,84.18
2019-04-29T11:55:57.120Z,84.42
2019-04-29T11:58:26.096Z,84.54
2019-04-29T12:01:08.858Z,84.74
2019-04-29T12:03:43.057Z,84.98
2019-04-29T12:06:16.512Z,84.92
2019-04-29T12:08:48.022Z,85.05
2019-04-29T12:11:15.560Z,84.93
2019-04-29T12:13:48.544Z,84.67
2019-04-29T12:16:24.582Z,84.86
2019-04-29T12:18:53.744Z,84.86
2019-04-29T12:21:25.639Z,84.87
2019-04-29T12:23:55.987Z,84.55
2019-04-29T12:26:24.824Z,84.86
2019-04-29T12:28:53.688Z,84.87
2019-04-29T12:31:26.580Z,85.03
2019-04-29T12:33:59.346Z,85.09
2019-04-29T12:36:27.882Z,85.24
2019-04-29T12:39:03.914Z,85.54
2019-04-29T12:41:50.618Z,85.48
2019-04-29T12:44:34.377Z,85.62
2019-04-29T12:46:55.737Z,85.38
2019-04-29T12:49:24.412Z,85.31
2019-04-29T12:51:52.956Z,85.35
2019-04-29T12:54:21.596Z,85.58
2019-04-29T12:56:50.233Z,85.45
2019-04-29T12:59:18.848Z,85.56
2019-04-29T13:01:58.044Z,85.62
2019-04-29T13:04:39.185Z,85.54
2019-04-29T13:07:18.606Z,85.67
2019-04-29T13:09:48.866Z,85.55
2019-04-29T13:12:19.905Z,85.68
2019-04-29T13:15:07.876Z,85.70
2019-04-29T13:17:45.466Z,85.91
2019-04-29T13:20:14.459Z,85.45
2019-04-29T13:22:43.008Z,85.40
2019-04-29T13:25:15.650Z,85.56
2019-04-29T13:27:42.259Z,85.50
2019-04-29T13:30:16.028Z,85.53
2019-04-29T13:32:43.176Z,85.49
2019-04-29T13:35:12.893Z,85.34
2019-04-29T13:37:41.729Z,85.29
2019-04-29T13:40:12.195Z,85.51
2019-04-29T13:42:48.476Z,85.64
2019-04-29T13:45:14.899Z,85.30
2019-04-29T13:48:07.116Z,85.15
2019-04-29T13:50:44.410Z,85.08
2019-04-29T13:53:16.579Z,85.00
2019-04-29T13:55:48.188Z,85.14
2019-04-29T13:58:13.732Z,85.23
2019-04-29T14:01:00.068Z,85.29
2019-04-29T14:03:37.298Z,85.29
2019-04-29T14:06:07.489Z,85.41
2019-04-29T14:08:36.223Z,85.40
2019-04-29T14:11:05.198Z,85.44
2019-04-29T14:13:33.921Z,85.35
2019-04-29T14:16:02.501Z,85.48
2019-04-29T14:18:34.807Z,85.46
2019-04-29T14:21:01.476Z,85.59
2019-04-29T14:23:30.088Z,85.74
2019-04-29T14:25:58.670Z,85.62
2019-04-29T14:28:27.325Z,85.45
2019-04-29T14:30:56.077Z,85.52
2019-04-29T14:33:27.081Z,85.59
2019-04-29T14:35:59.805Z,85.74
2019-04-29T14:38:28.434Z,85.25
2019-04-29T14:40:57.070Z,85.12
2019-04-29T14:43:36.299Z,85.05
2019-04-29T14:46:15.712Z,85.03
2019-04-29T14:48:42.882Z,84.80
2019-04-29T14:51:12.066Z,85.16
2019-04-29T14:53:40.641Z,85.24
2019-04-29T14:56:09.213Z,85.25
2019-04-29T14:58:37.848Z,85.34
2019-04-29T15:01:24.629Z,85.21
2019-04-29T15:04:00.679Z,85.34
2019-04-29T15:06:29.651Z,85.11
2019-04-29T15:08:58.548Z,85.06
2019-04-29T15:11:31.885Z,85.19
2019-04-29T15:14:22.972Z,84.85
2019-04-29T15:16:49.555Z,84.91
2019-04-29T15:19:28.715Z,84.94
2019-04-29T15:21:59.226Z,85.01
2019-04-29T15:24:32.449Z,85.25
2019-04-29T15:26:57.987Z,85.07
2019-04-29T15:29:26.530Z,85.29
2019-04-29T15:31:55.003Z,85.49
2019-04-29T15:34:23.509Z,85.60
2019-04-29T15:36:52.094Z,85.47
2019-04-29T15:39:20.941Z,85.51
2019-04-29T15:41:53.883Z,85.41
2019-04-29T15:44:23.041Z,85.43
2019-04-29T15:46:51.138Z,85.22
2019-04-29T15:49:24.107Z,85.43
2019-04-29T15:51:51.067Z,85.48
2019-04-29T15:54:19.874Z,85.45
2019-04-29T15:56:48.735Z,85.40
2019-04-29T15:59:17.679Z,85.67
2019-04-29T16:01:46.447Z,85.70
2019-04-29T16:04:27.783Z,85.43
2019-04-29T16:07:17.634Z,85.71
2019-04-29T16:09:51.590Z,85.65
2019-04-29T16:12:19.333Z,85.65
2019-04-29T16:14:49.143Z,85.72
2019-04-29T16:17:20.719Z,85.98
2019-04-29T16:19:48.386Z,86.03
2019-04-29T16:22:19.746Z,85.99
2019-04-29T16:24:47.328Z,86.15
2019-04-29T16:27:16.141Z,86.16
2019-04-29T16:29:46.151Z,85.31
2019-04-29T16:32:16.750Z,85.89
2019-04-29T16:34:47.016Z,85.60
2019-04-29T16:37:19.180Z,85.47
2019-04-29T16:39:45.882Z,85.66
2019-04-29T16:42:19.106Z,85.69
2019-04-29T16:44:47.647Z,85.87
2019-04-29T16:47:16.841Z,85.81
2019-04-29T16:49:45.627Z,85.92
2019-04-29T16:52:14.328Z,86.01
2019-04-29T16:54:42.998Z,85.88
2019-04-29T16:57:11.541Z,86.01
2019-04-29T16:59:40.150Z,85.99
2019-04-29T17:02:09.067Z,85.92
2019-04-29T17:04:37.633Z,85.87
2019-04-29T17:07:14.062Z,86.00
2019-04-29T17:09:53.354Z,85.74
2019-04-29T17:12:22.416Z,85.90
2019-04-29T17:15:04.137Z,85.89
2019-04-29T17:17:28.893Z,85.95
2019-04-29T17:19:53.255Z,85.93
2019-04-29T17:22:25.887Z,86.08
2019-04-29T17:24:52.466Z,86.22
2019-04-29T17:27:41.201Z,86.31
2019-04-29T17:30:23.585Z,86.49
2019-04-29T17:33:09.324Z,86.52
2019-04-29T17:35:46.842Z,86.41
2019-04-29T17:38:09.542Z,86.55
2019-04-29T17:40:50.496Z,86.55
2019-04-29T17:43:27.106Z,86.61
2019-04-29T17:45:57.329Z,86.71
2019-04-29T17:48:36.371Z,86.56
2019-04-29T17:51:07.501Z,86.06
2019-04-29T17:53:37.764Z,86.05
2019-04-29T17:56:08.445Z,86.37
2019-04-29T17:58:43.867Z,86.57
2019-04-29T18:01:26.056Z,86.40
2019-04-29T18:04:11.790Z,86.48
2019-04-29T18:06:40.658Z,86.41
2019-04-29T18:09:26.102Z,86.61
2019-04-29T18:11:57.564Z,85.84
2019-04-29T18:14:30.854Z,85.71
2019-04-29T18:16:55.874Z,85.64
2019-04-29T18:19:30.786Z,86.19
2019-04-29T18:22:17.371Z,86.23
2019-04-29T18:24:59.368Z,86.33
2019-04-29T18:27:41.743Z,86.43
2019-04-29T18:30:12.318Z,86.80
2019-04-29T18:32:46.633Z,86.93
2019-04-29T18:35:12.596Z,87.17
2019-04-29T18:37:41.063Z,87.26
2019-04-29T18:40:10.000Z,87.38
2019-04-29T18:42:43.166Z,87.40
2019-04-29T18:45:09.488Z,87.35
2019-04-29T18:47:38.867Z,87.33
2019-04-29T18:50:08.971Z,87.37
2019-04-29T18:52:37.588Z,87.47
2019-04-29T18:55:07.659Z,87.53
2019-04-29T18:57:36.327Z,87.45
2019-04-29T19:00:12.730Z,87.31
2019-04-29T19:02:45.390Z,87.28
2019-04-29T19:05:17.312Z,87.30
2019-04-29T19:07:55.029Z,87.36
2019-04-29T19:10:18.632Z,87.47
2019-04-29T19:12:57.402Z,87.59
2019-04-29T19:15:18.444Z,87.58
2019-04-29T19:17:58.720Z,87.59
2019-04-29T19:20:18.670Z,87.82
2019-04-29T19:22:47.455Z,88.05
2019-04-29T19:25:16.374Z,88.11
2019-04-29T19:27:45.524Z,88.30
2019-04-29T19:30:20.865Z,88.18
2019-04-29T19:32:46.896Z,88.27
2019-04-29T19:35:17.001Z,88.44
2019-04-29T19:37:45.935Z,88.45
2019-04-29T19:40:15.166Z,88.46
2019-04-29T19:42:46.897Z,88.54
2019-04-29T19:45:17.160Z,88.66
2019-04-29T19:47:52.018Z,88.55
2019-04-29T19:50:19.529Z,88.64
2019-04-29T19:52:47.539Z,88.75
2019-04-29T19:55:16.183Z,88.74
2019-04-29T19:57:51.552Z,88.85
2019-04-29T20:00:17.779Z,88.92
2019-04-29T20:02:50.134Z,89.03
2019-04-29T20:05:18.355Z,89.06
2019-04-29T20:07:50.746Z,88.96
2019-04-29T20:10:18.942Z,88.98
2019-04-29T20:12:53.095Z,88.92
2019-04-29T20:15:19.064Z,88.77
2019-04-29T20:18:07.975Z,88.71
2019-04-29T20:20:41.883Z,88.61
2019-04-29T20:23:10.919Z,88.53
2019-04-29T20:25:39.937Z,88.43
2019-04-29T20:28:17.014Z,88.58
2019-04-29T20:30:39.548Z,88.65
2019-04-29T20:33:11.387Z,88.77
2019-04-29T20:35:40.479Z,88.74
2019-04-29T20:38:09.393Z,88.83
2019-04-29T20:40:42.825Z,88.85
2019-04-29T20:43:08.734Z,88.93
2019-04-29T20:45:37.654Z,88.99
2019-04-29T20:48:06.792Z,89.06
2019-04-29T20:50:35.741Z,89.14
2019-04-29T20:53:09.307Z,89.20
2019-04-29T20:55:38.599Z,89.13
2019-04-29T20:58:07.497Z,89.19
2019-04-29T21:00:38.366Z,89.22
2019-04-29T21:03:09.356Z,89.32
2019-04-29T21:05:47.472Z,89.32
2019-04-29T21:08:14.440Z,89.48
2019-04-29T21:10:43.047Z,89.42
2019-04-29T21:13:16.168Z,89.32
2019-04-29T21:15:51.958Z,89.38
2019-04-29T21:18:15.906Z,89.41
2019-04-29T21:20:45.179Z,89.46
2019-04-29T21:23:15.084Z,89.55
2019-04-29T21:25:43.557Z,89.57
2019-04-29T21:28:12.237Z,89.54
2019-04-29T21:30:42.713Z,89.50
2019-04-29T21:33:18.321Z,89.44
2019-04-29T21:35:49.532Z,89.38
2019-04-29T21:38:26.028Z,89.39
2019-04-29T21:40:56.143Z,89.31
2019-04-29T21:43:26.418Z,89.17
2019-04-29T21:45:55.659Z,89.10
2019-04-29T21:48:33.065Z,89.23
2019-04-29T21:50:55.706Z,89.21
2019-04-29T21:53:25.184Z,89.24
2019-04-29T21:55:55.442Z,89.29
2019-04-29T21:58:24.289Z,89.38
2019-04-29T22:00:55.896Z,89.41
2019-04-29T22:03:24.595Z,89.43
2019-04-29T22:05:55.241Z,89.47
2019-04-29T22:08:27.557Z,89.51
2019-04-29T22:10:58.116Z,89.62
2019-04-29T22:13:24.936Z,89.51
2019-04-29T22:15:53.450Z,89.50
2019-04-29T22:18:22.019Z,89.54
2019-04-29T22:20:50.604Z,89.49
2019-04-29T22:23:19.225Z,89.58
2019-04-29T22:25:47.827Z,89.65
2019-04-29T22:28:19.685Z,89.67
2019-04-29T22:30:49.931Z,89.53
2019-04-29T22:33:17.274Z,89.54
2019-04-29T22:35:45.818Z,89.49
2019-04-29T22:38:16.702Z,89.34
2019-04-29T22:40:45.351Z,89.50
2019-04-29T22:43:18.376Z,89.39
2019-04-29T22:45:47.187Z,89.35
2019-04-29T22:48:19.525Z,89.24
2019-04-29T22:50:47.392Z,89.27
2019-04-29T22:53:16.382Z,89.27
2019-04-29T22:55:45.322Z,89.37
2019-04-29T22:58:15.127Z,89.39
2019-04-29T23:00:43.866Z,89.42
2019-04-29T23:03:12.503Z,89.42
2019-04-29T23:05:41.178Z,89.47
2019-04-29T23:08:09.808Z,89.42
2019-04-29T23:10:38.601Z,89.40
2019-04-29T23:13:07.217Z,89.42
2019-04-29T23:15:35.965Z,89.46
2019-04-29T23:18:06.187Z,89.46
2019-04-29T23:20:52.752Z,89.46
2019-04-29T23:23:29.145Z,89.37
2019-04-29T23:25:55.692Z,89.39
2019-04-29T23:28:26.996Z,89.38
2019-04-29T23:30:54.857Z,89.36
2019-04-29T23:33:25.854Z,89.39
2019-04-29T23:35:53.767Z,89.43
2019-04-29T23:38:22.234Z,89.41
2019-04-29T23:40:54.441Z,89.51
2019-04-29T23:43:25.334Z,89.50
2019-04-29T23:45:55.974Z,89.47
2019-04-29T23:48:23.839Z,89.45
2019-04-29T23:50:56.633Z,89.41
2019-04-29T23:53:25.204Z,89.43
2019-04-29T23:55:53.149Z,89.39
2019-04-29T23:58:26.155Z,89.48
